createdAt,value
2023-03-30T00:01:26.564Z,20.83
2023-03-30T00:03:55.250Z,19.91
2023-03-30T00:06:23.200Z,20.50
2023-03-30T00:08:58.545Z,19.77
2023-03-30T00:11:27.444Z,19.01
2023-03-30T00:13:55.206Z,19.43
2023-03-30T00:16:22.969Z,20.17
2023-03-30T00:18:51.319Z,19.75
2023-03-30T00:21:20.587Z,19.75
2023-03-30T00:23:48.289Z,19.51
2023-03-30T00:26:16.144Z,19.94
2023-03-30T00:28:43.568Z,19.97
2023-03-30T00:31:11.387Z,20.48
2023-03-30T00:33:46.577Z,20.07
2023-03-30T00:36:15.664Z,20.73
2023-03-30T00:38:43.911Z,20.69
2023-03-30T00:41:11.369Z,19.84
2023-03-30T00:43:59.057Z,20.92
2023-03-30T00:46:26.807Z,19.53
2023-03-30T00:48:57.822Z,19.97
2023-03-30T00:51:28.142Z,19.64
2023-03-30T00:54:02.609Z,20.00
2023-03-30T00:56:30.960Z,20.14
2023-03-30T00:58:58.955Z,19.37
2023-03-30T01:01:31.066Z,19.17
2023-03-30T01:04:05.484Z,19.24
2023-03-30T01:06:34.968Z,19.68
2023-03-30T01:09:02.623Z,19.85
2023-03-30T01:11:29.960Z,19.70
2023-03-30T01:14:06.201Z,20.35
2023-03-30T01:16:40.117Z,21.35
2023-03-30T01:20:19.463Z,20.67
2023-03-30T01:23:19.751Z,19.56
2023-03-30T01:26:39.367Z,19.61
2023-03-30T01:29:44.831Z,19.73
2023-03-30T01:33:07.390Z,20.34
2023-03-30T01:35:54.010Z,20.62
2023-03-30T01:39:09.582Z,20.30
2023-03-30T01:41:56.667Z,19.73
2023-03-30T01:44:53.922Z,19.94
2023-03-30T01:47:53.285Z,19.79
2023-03-30T01:50:23.606Z,19.17
2023-03-30T01:53:15.963Z,20.27
2023-03-30T01:55:47.292Z,19.61
2023-03-30T01:58:36.991Z,19.19
2023-03-30T02:01:10.343Z,19.99
2023-03-30T02:03:44.605Z,19.74
2023-03-30T02:06:43.786Z,19.73
2023-03-30T02:09:16.505Z,19.68
2023-03-30T02:11:48.188Z,19.25
2023-03-30T02:14:18.104Z,19.37
2023-03-30T02:16:51.548Z,20.07
2023-03-30T02:19:19.566Z,20.10
2023-03-30T02:21:48.030Z,19.71
2023-03-30T02:24:25.000Z,19.86
2023-03-30T02:26:54.341Z,19.90
2023-03-30T02:29:23.115Z,19.81
2023-03-30T02:31:53.491Z,19.74
2023-03-30T02:34:25.851Z,19.90
2023-03-30T02:37:27.591Z,20.54
2023-03-30T02:40:12.348Z,20.09
2023-03-30T02:43:09.187Z,19.97
2023-03-30T02:45:43.051Z,19.51
2023-03-30T02:48:31.830Z,20.36
2023-03-30T02:51:33.929Z,19.80
2023-03-30T02:54:51.123Z,20.38
2023-03-30T02:57:40.612Z,20.26
2023-03-30T03:00:52.310Z,21.26
2023-03-30T03:03:37.389Z,21.65
2023-03-30T03:06:05.779Z,20.89
2023-03-30T03:08:41.258Z,20.63
2023-03-30T03:11:12.014Z,20.37
2023-03-30T03:13:39.742Z,20.28
2023-03-30T03:16:11.025Z,20.64
2023-03-30T03:18:40.362Z,19.66
2023-03-30T03:21:09.303Z,19.89
2023-03-30T03:23:37.457Z,20.18
2023-03-30T03:26:06.733Z,20.23
2023-03-30T03:28:35.079Z,20.24
2023-03-30T03:31:07.870Z,20.05
2023-03-30T03:33:36.316Z,20.29
2023-03-30T03:36:11.013Z,20.40
2023-03-30T03:38:43.490Z,19.99
2023-03-30T03:41:10.885Z,19.90
2023-03-30T03:43:39.565Z,19.96
2023-03-30T03:46:07.253Z,19.55
2023-03-30T03:48:37.500Z,20.22
2023-03-30T03:51:05.601Z,19.50
2023-03-30T03:53:34.950Z,19.96
2023-03-30T03:56:06.006Z,19.87
2023-03-30T03:58:34.266Z,19.88
2023-03-30T04:01:03.917Z,20.63
2023-03-30T04:03:32.083Z,20.47
2023-03-30T04:06:01.007Z,20.34
2023-03-30T04:08:29.043Z,20.29
2023-03-30T04:11:11.759Z,20.23
2023-03-30T04:14:05.682Z,20.16
2023-03-30T04:16:58.365Z,20.02
2023-03-30T04:19:38.266Z,20.35
2023-03-30T04:22:26.710Z,20.51
2023-03-30T04:25:27.516Z,20.33
2023-03-30T04:28:14.476Z,21.11
2023-03-30T04:31:05.325Z,20.19
2023-03-30T04:33:53.291Z,20.38
2023-03-30T04:36:43.765Z,20.43
2023-03-30T04:39:23.722Z,19.45
2023-03-30T04:42:14.045Z,20.68
2023-03-30T04:44:54.223Z,20.18
2023-03-30T04:47:40.298Z,19.82
2023-03-30T04:50:39.933Z,19.32
2023-03-30T04:53:37.394Z,19.67
2023-03-30T04:56:33.639Z,20.30
2023-03-30T04:59:21.195Z,19.43
2023-03-30T05:02:11.933Z,20.02
2023-03-30T05:05:09.941Z,20.63
2023-03-30T05:08:00.400Z,19.31
2023-03-30T05:10:47.365Z,19.26
2023-03-30T05:13:17.741Z,19.48
2023-03-30T05:16:11.041Z,20.06
2023-03-30T05:18:58.971Z,20.28
2023-03-30T05:21:44.831Z,20.60
2023-03-30T05:24:31.532Z,20.31
2023-03-30T05:27:31.290Z,20.51
2023-03-30T05:30:19.061Z,20.89
2023-03-30T05:33:05.414Z,20.68
2023-03-30T05:35:51.132Z,20.66
2023-03-30T05:38:42.066Z,20.50
2023-03-30T05:41:32.623Z,20.13
2023-03-30T05:44:08.821Z,20.41
2023-03-30T05:46:56.236Z,20.36
2023-03-30T05:49:29.453Z,20.64
2023-03-30T05:52:07.368Z,20.28
2023-03-30T05:54:57.136Z,20.26
2023-03-30T05:57:31.374Z,19.97
2023-03-30T06:00:14.583Z,19.68
2023-03-30T06:02:53.282Z,19.57
2023-03-30T06:05:24.379Z,19.81
2023-03-30T06:07:51.976Z,19.93
2023-03-30T06:10:19.884Z,20.23
2023-03-30T06:12:48.303Z,20.28
2023-03-30T06:15:31.233Z,20.12
2023-03-30T06:18:13.384Z,20.47
2023-03-30T06:20:50.483Z,21.39
2023-03-30T06:23:18.200Z,21.13
2023-03-30T06:25:53.327Z,20.15
2023-03-30T06:28:26.119Z,19.73
2023-03-30T06:30:54.253Z,19.47
2023-03-30T06:33:25.929Z,19.52
2023-03-30T06:35:58.330Z,20.65
2023-03-30T06:38:25.720Z,20.57
2023-03-30T06:40:55.749Z,20.40
2023-03-30T06:43:26.296Z,19.86
2023-03-30T06:46:00.230Z,19.91
2023-03-30T06:48:27.692Z,20.55
2023-03-30T06:51:15.203Z,20.17
2023-03-30T06:53:44.809Z,20.25
2023-03-30T06:56:12.339Z,20.36
2023-03-30T06:58:54.041Z,20.63
2023-03-30T07:01:21.750Z,20.24
2023-03-30T07:04:12.515Z,20.96
2023-03-30T07:07:00.371Z,20.33
2023-03-30T07:09:28.224Z,20.38
2023-03-30T07:11:56.572Z,20.03
2023-03-30T07:14:24.258Z,19.78
2023-03-30T07:16:53.066Z,19.91
2023-03-30T07:19:20.420Z,19.71
2023-03-30T07:21:47.840Z,19.29
2023-03-30T07:24:17.882Z,19.26
2023-03-30T07:26:45.460Z,18.79
2023-03-30T07:29:13.017Z,19.44
2023-03-30T07:31:43.116Z,19.42
2023-03-30T07:34:12.675Z,19.72
2023-03-30T07:36:46.116Z,19.38
2023-03-30T07:39:13.589Z,19.10
2023-03-30T07:41:43.883Z,19.15
2023-03-30T07:44:11.297Z,19.15
2023-03-30T07:46:38.888Z,19.02
2023-03-30T07:49:06.848Z,18.55
2023-03-30T07:51:34.557Z,20.74
2023-03-30T07:54:10.299Z,20.45
2023-03-30T07:56:52.903Z,30.13
2023-03-30T07:59:21.897Z,30.04
2023-03-30T08:01:54.536Z,26.66
2023-03-30T08:04:44.904Z,26.04
2023-03-30T08:07:14.498Z,25.93
2023-03-30T08:09:42.484Z,22.95
2023-03-30T08:12:09.997Z,23.76
2023-03-30T08:14:37.453Z,22.46
2023-03-30T08:17:04.838Z,22.77
2023-03-30T08:19:32.240Z,22.69
2023-03-30T08:22:01.736Z,23.14
2023-03-30T08:24:29.167Z,22.61
2023-03-30T08:26:56.597Z,21.86
2023-03-30T08:29:23.987Z,21.81
2023-03-30T08:31:52.688Z,21.92
2023-03-30T08:34:20.095Z,20.84
2023-03-30T08:36:47.479Z,21.47
2023-03-30T08:39:15.476Z,20.46
2023-03-30T08:42:00.270Z,21.41
2023-03-30T08:45:05.161Z,22.05
2023-03-30T08:47:39.917Z,22.45
2023-03-30T08:50:08.617Z,22.95
2023-03-30T08:52:36.899Z,22.65
2023-03-30T08:55:04.746Z,22.66
2023-03-30T08:58:03.296Z,24.24
2023-03-30T09:00:49.670Z,24.09
2023-03-30T09:03:28.104Z,24.31
2023-03-30T09:06:12.114Z,21.96
2023-03-30T09:08:39.905Z,23.25
2023-03-30T09:11:15.411Z,23.38
2023-03-30T09:13:45.519Z,22.69
2023-03-30T09:16:30.575Z,22.62
2023-03-30T09:19:00.075Z,22.71
2023-03-30T09:21:31.570Z,22.66
2023-03-30T09:24:02.301Z,22.72
2023-03-30T09:26:57.144Z,22.84
2023-03-30T09:29:32.589Z,22.11
2023-03-30T09:32:14.730Z,22.33
2023-03-30T09:34:59.705Z,22.40
2023-03-30T09:37:27.251Z,22.56
2023-03-30T09:39:55.113Z,22.10
2023-03-30T09:42:48.024Z,22.91
2023-03-30T09:45:32.662Z,22.01
2023-03-30T09:48:08.578Z,22.71
2023-03-30T09:50:54.502Z,22.15
2023-03-30T09:53:29.204Z,22.17
2023-03-30T09:56:04.332Z,21.30
2023-03-30T09:58:34.082Z,21.03
2023-03-30T10:01:18.402Z,22.68
2023-03-30T10:04:32.608Z,21.78
2023-03-30T10:07:06.965Z,21.90
2023-03-30T10:09:44.857Z,22.33
2023-03-30T10:12:14.176Z,21.64
2023-03-30T10:14:41.611Z,21.52
2023-03-30T10:17:16.867Z,21.88
2023-03-30T10:19:49.406Z,21.75
2023-03-30T10:22:24.318Z,22.40
2023-03-30T10:24:56.946Z,22.56
2023-03-30T10:27:37.430Z,22.13
2023-03-30T10:30:24.635Z,22.61
2023-03-30T10:32:53.889Z,22.56
2023-03-30T10:35:39.286Z,22.84
2023-03-30T10:38:08.237Z,21.65
2023-03-30T10:40:39.542Z,21.79
2023-03-30T10:43:14.744Z,22.75
2023-03-30T10:45:47.933Z,23.43
2023-03-30T10:48:36.823Z,22.03
2023-03-30T10:51:40.816Z,22.60
2023-03-30T10:54:26.601Z,22.59
2023-03-30T10:57:08.374Z,23.16
2023-03-30T10:59:45.828Z,22.45
2023-03-30T11:02:44.509Z,22.51
2023-03-30T11:05:22.873Z,21.68
2023-03-30T11:08:12.233Z,22.31
2023-03-30T11:10:44.420Z,22.92
2023-03-30T11:13:24.521Z,22.39
2023-03-30T11:16:04.065Z,23.03
2023-03-30T11:18:43.680Z,23.32
2023-03-30T11:21:41.570Z,23.64
2023-03-30T11:24:23.639Z,24.30
2023-03-30T11:26:56.359Z,24.38
2023-03-30T11:30:16.017Z,25.25
2023-03-30T11:33:07.441Z,24.67
2023-03-30T11:36:06.508Z,23.98
2023-03-30T11:38:47.990Z,22.84
2023-03-30T11:41:22.722Z,22.61
2023-03-30T11:43:55.808Z,22.54
2023-03-30T11:46:43.799Z,22.44
2023-03-30T11:49:57.450Z,23.12
2023-03-30T11:52:52.135Z,23.34
2023-03-30T11:55:41.492Z,24.62
2023-03-30T11:58:36.584Z,23.17
2023-03-30T12:01:15.335Z,21.96
2023-03-30T12:03:52.128Z,23.53
2023-03-30T12:06:58.004Z,23.73
2023-03-30T12:09:33.453Z,23.03
2023-03-30T12:12:15.884Z,23.67
2023-03-30T12:15:18.815Z,22.06
2023-03-30T12:17:51.895Z,21.56
2023-03-30T12:20:53.430Z,21.61
2023-03-30T12:23:42.111Z,23.63
2023-03-30T12:26:30.221Z,23.54
2023-03-30T12:29:56.464Z,22.90
2023-03-30T12:32:05.858Z,22.80
2023-03-30T12:34:38.481Z,23.34
2023-03-30T12:37:13.257Z,22.93
2023-03-30T12:39:53.727Z,24.25
2023-03-30T12:42:35.136Z,23.68
2023-03-30T12:45:32.243Z,23.59
2023-03-30T12:48:20.660Z,22.98
2023-03-30T12:51:12.567Z,23.21
2023-03-30T12:54:01.350Z,22.93
2023-03-30T12:56:56.209Z,23.94
2023-03-30T13:00:09.598Z,23.02
2023-03-30T13:02:55.124Z,23.22
2023-03-30T13:05:40.307Z,22.49
2023-03-30T13:08:16.533Z,22.79
2023-03-30T13:10:44.041Z,22.98
2023-03-30T13:13:44.393Z,22.94
2023-03-30T13:16:14.121Z,22.77
2023-03-30T13:18:54.789Z,22.28
2023-03-30T13:21:23.380Z,22.07
2023-03-30T13:24:28.379Z,22.44
2023-03-30T13:27:22.902Z,23.22
2023-03-30T13:30:02.989Z,22.70
2023-03-30T13:32:47.024Z,22.58
2023-03-30T13:35:31.239Z,23.46
2023-03-30T13:38:51.130Z,21.72
2023-03-30T13:41:50.760Z,24.97
2023-03-30T13:44:32.614Z,25.72
2023-03-30T13:47:12.057Z,24.67
2023-03-30T13:50:00.616Z,23.01
2023-03-30T13:52:38.239Z,22.78
2023-03-30T13:55:22.839Z,22.02
2023-03-30T13:57:53.893Z,21.25
2023-03-30T14:00:45.260Z,25.59
2023-03-30T14:03:44.381Z,22.49
2023-03-30T14:06:14.488Z,23.34
2023-03-30T14:08:46.357Z,23.79
2023-03-30T14:11:14.635Z,23.47
2023-03-30T14:13:42.689Z,22.56
2023-03-30T14:16:23.365Z,22.84
2023-03-30T14:18:51.431Z,22.15
2023-03-30T14:21:23.942Z,22.45
2023-03-30T14:23:55.222Z,22.67
2023-03-30T14:26:28.484Z,22.64
2023-03-30T14:29:03.518Z,21.82
2023-03-30T14:31:40.377Z,22.05
2023-03-30T14:34:25.338Z,22.09
2023-03-30T14:36:59.695Z,22.23
2023-03-30T14:39:27.427Z,21.71
2023-03-30T14:41:56.335Z,21.84
2023-03-30T14:44:24.364Z,21.57
2023-03-30T14:46:56.626Z,21.44
2023-03-30T14:49:31.417Z,22.33
2023-03-30T14:52:14.048Z,22.74
2023-03-30T14:54:51.373Z,22.52
2023-03-30T14:57:26.577Z,22.13
2023-03-30T14:59:59.664Z,21.90
2023-03-30T15:02:32.405Z,21.46
2023-03-30T15:05:00.221Z,20.98
2023-03-30T15:07:31.904Z,20.48
2023-03-30T15:10:00.661Z,20.11
2023-03-30T15:12:35.562Z,19.52
2023-03-30T15:15:06.817Z,21.05
2023-03-30T15:17:35.379Z,20.50
2023-03-30T15:20:06.353Z,21.15
2023-03-30T15:22:49.134Z,21.23
2023-03-30T15:25:23.338Z,21.31
2023-03-30T15:28:04.667Z,20.97
2023-03-30T15:30:39.260Z,20.99
2023-03-30T15:33:08.008Z,22.33
2023-03-30T15:35:37.224Z,21.83
2023-03-30T15:38:15.636Z,22.33
2023-03-30T15:40:46.988Z,22.62
2023-03-30T15:43:30.355Z,22.97
2023-03-30T15:46:13.527Z,22.61
2023-03-30T15:48:50.244Z,23.10
2023-03-30T15:51:42.901Z,22.78
2023-03-30T15:54:13.644Z,22.50
2023-03-30T15:56:48.206Z,22.61
2023-03-30T15:59:18.913Z,22.08
2023-03-30T16:01:54.577Z,21.61
2023-03-30T16:04:24.377Z,21.97
2023-03-30T16:06:52.727Z,22.16
2023-03-30T16:09:20.202Z,21.74
2023-03-30T16:11:47.835Z,22.13
2023-03-30T16:14:19.888Z,23.03
2023-03-30T16:16:47.567Z,21.63
2023-03-30T16:19:23.694Z,22.32
2023-03-30T16:21:51.524Z,22.29
2023-03-30T16:24:18.521Z,21.81
2023-03-30T16:26:46.870Z,22.19
2023-03-30T16:29:23.599Z,22.34
2023-03-30T16:31:51.931Z,22.37
2023-03-30T16:34:19.452Z,21.31
2023-03-30T16:36:47.946Z,21.58
2023-03-30T16:39:29.069Z,22.64
2023-03-30T16:41:56.493Z,21.53
2023-03-30T16:44:25.002Z,22.83
2023-03-30T16:46:52.547Z,22.13
2023-03-30T16:49:25.820Z,22.09
2023-03-30T16:51:56.910Z,21.97
2023-03-30T16:54:32.218Z,22.28
2023-03-30T16:57:01.199Z,21.69
2023-03-30T16:59:30.639Z,21.13
2023-03-30T17:01:58.859Z,21.48
2023-03-30T17:04:26.495Z,21.24
2023-03-30T17:06:54.562Z,20.76
2023-03-30T17:09:22.182Z,21.50
2023-03-30T17:11:49.956Z,21.63
2023-03-30T17:14:17.758Z,20.89
2023-03-30T17:16:44.842Z,21.23
2023-03-30T17:19:13.819Z,21.25
2023-03-30T17:21:43.345Z,21.63
2023-03-30T17:24:11.210Z,20.94
2023-03-30T17:26:39.059Z,20.75
2023-03-30T17:29:06.125Z,21.35
2023-03-30T17:31:33.164Z,20.63
2023-03-30T17:34:00.400Z,20.59
2023-03-30T17:36:28.619Z,21.55
2023-03-30T17:38:56.412Z,20.61
2023-03-30T17:41:23.746Z,20.32
2023-03-30T17:43:51.528Z,20.69
2023-03-30T17:46:19.862Z,21.68
2023-03-30T17:48:47.353Z,20.90
2023-03-30T17:51:14.367Z,20.71
2023-03-30T17:53:41.696Z,19.97
2023-03-30T17:56:12.901Z,21.08
2023-03-30T17:58:39.926Z,20.17
2023-03-30T18:01:11.042Z,21.80
2023-03-30T18:03:39.637Z,20.54
2023-03-30T18:06:07.628Z,21.96
2023-03-30T18:08:35.902Z,21.88
2023-03-30T18:11:03.956Z,21.44
2023-03-30T18:13:31.260Z,21.76
2023-03-30T18:16:01.488Z,22.21
2023-03-30T18:18:30.718Z,21.76
2023-03-30T18:21:03.155Z,22.47
2023-03-30T18:23:31.731Z,21.55
2023-03-30T18:25:59.181Z,21.07
2023-03-30T18:28:28.394Z,20.68
2023-03-30T18:30:57.458Z,20.10
2023-03-30T18:33:25.374Z,20.73
2023-03-30T18:35:56.935Z,21.14
2023-03-30T18:38:25.483Z,21.37
2023-03-30T18:40:57.417Z,22.40
2023-03-30T18:43:26.725Z,22.51
2023-03-30T18:45:57.817Z,23.15
2023-03-30T18:48:27.210Z,21.71
2023-03-30T18:50:55.393Z,22.65
2023-03-30T18:53:28.251Z,22.19
2023-03-30T18:56:00.713Z,22.13
2023-03-30T18:58:31.225Z,22.29
2023-03-30T19:00:58.571Z,21.47
2023-03-30T19:03:28.254Z,21.78
2023-03-30T19:05:56.010Z,22.13
2023-03-30T19:08:26.049Z,21.88
2023-03-30T19:10:58.008Z,22.99
2023-03-30T19:13:26.597Z,21.34
2023-03-30T19:15:54.573Z,21.39
2023-03-30T19:18:22.321Z,20.76
2023-03-30T19:20:51.574Z,23.14
2023-03-30T19:23:21.930Z,22.34
2023-03-30T19:25:49.326Z,22.26
2023-03-30T19:28:16.831Z,22.61
2023-03-30T19:30:44.636Z,21.40
2023-03-30T19:33:20.751Z,21.85
2023-03-30T19:35:47.937Z,21.52
2023-03-30T19:38:15.834Z,22.32
2023-03-30T19:40:43.635Z,21.48
2023-03-30T19:43:10.760Z,20.85
2023-03-30T19:45:38.761Z,21.15
2023-03-30T19:48:06.152Z,19.94
2023-03-30T19:50:33.600Z,21.05
2023-03-30T19:53:01.083Z,21.18
2023-03-30T19:55:28.916Z,21.54
2023-03-30T19:57:56.321Z,21.82
2023-03-30T20:00:23.987Z,21.37
2023-03-30T20:02:54.147Z,21.41
2023-03-30T20:05:24.000Z,21.40
2023-03-30T20:07:51.389Z,22.01
2023-03-30T20:10:24.706Z,21.79
2023-03-30T20:12:52.874Z,21.36
2023-03-30T20:15:22.973Z,21.87
2023-03-30T20:17:56.390Z,21.70
2023-03-30T20:20:25.413Z,21.14
2023-03-30T20:22:56.421Z,21.76
2023-03-30T20:25:24.640Z,21.40
2023-03-30T20:27:52.807Z,21.55
2023-03-30T20:30:20.585Z,21.79
2023-03-30T20:33:03.943Z,21.31
2023-03-30T20:35:38.579Z,21.99
2023-03-30T20:38:08.206Z,21.74
2023-03-30T20:40:35.903Z,21.53
2023-03-30T20:43:03.565Z,21.28
2023-03-30T20:45:31.686Z,20.65
2023-03-30T20:48:00.617Z,21.19
2023-03-30T20:50:28.018Z,20.88
2023-03-30T20:52:55.878Z,20.61
2023-03-30T20:55:23.210Z,20.51
2023-03-30T20:57:50.787Z,20.09
2023-03-30T21:00:18.600Z,20.95
2023-03-30T21:02:46.647Z,20.77
2023-03-30T21:05:13.555Z,21.04
2023-03-30T21:07:42.251Z,20.73
2023-03-30T21:10:09.735Z,19.55
2023-03-30T21:12:37.116Z,19.98
2023-03-30T21:15:04.741Z,20.43
2023-03-30T21:17:31.686Z,20.34
2023-03-30T21:19:59.134Z,20.40
2023-03-30T21:22:26.576Z,20.29
2023-03-30T21:24:53.874Z,20.94
2023-03-30T21:27:21.197Z,21.50
2023-03-30T21:29:48.521Z,20.20
2023-03-30T21:32:15.919Z,20.39
2023-03-30T21:34:43.245Z,20.97
2023-03-30T21:37:10.612Z,20.34
2023-03-30T21:39:38.028Z,21.27
2023-03-30T21:42:05.432Z,20.59
2023-03-30T21:44:36.296Z,20.40
2023-03-30T21:47:03.176Z,19.49
2023-03-30T21:49:30.821Z,20.14
2023-03-30T21:51:58.113Z,20.77
2023-03-30T21:54:25.073Z,20.44
2023-03-30T21:56:52.381Z,21.35
2023-03-30T21:59:19.267Z,21.05
2023-03-30T22:02:11.695Z,20.20
2023-03-30T22:04:39.210Z,20.50
2023-03-30T22:07:06.457Z,19.36
2023-03-30T22:09:33.855Z,20.29
2023-03-30T22:12:01.308Z,20.58
2023-03-30T22:14:28.744Z,20.15
2023-03-30T22:16:57.853Z,20.55
2023-03-30T22:19:25.199Z,21.10
2023-03-30T22:21:52.905Z,21.42
2023-03-30T22:24:20.215Z,19.65
2023-03-30T22:26:49.156Z,20.59
2023-03-30T22:29:17.254Z,20.41
2023-03-30T22:31:44.650Z,21.29
2023-03-30T22:34:12.091Z,20.56
2023-03-30T22:36:40.663Z,20.76
2023-03-30T22:39:09.057Z,20.97
2023-03-30T22:41:36.346Z,20.94
2023-03-30T22:44:03.275Z,21.26
2023-03-30T22:46:30.728Z,21.38
2023-03-30T22:48:57.716Z,21.34
2023-03-30T22:51:28.466Z,20.66
2023-03-30T22:54:00.233Z,20.76
2023-03-30T22:56:28.401Z,20.76
2023-03-30T22:58:56.341Z,21.19
2023-03-30T23:01:23.566Z,21.04
2023-03-30T23:03:52.942Z,21.14
2023-03-30T23:06:20.478Z,20.37
2023-03-30T23:08:48.573Z,21.07
2023-03-30T23:11:16.286Z,20.97
2023-03-30T23:13:43.327Z,20.12
2023-03-30T23:16:10.994Z,20.85
2023-03-30T23:18:38.560Z,20.48
2023-03-30T23:21:07.622Z,20.67
2023-03-30T23:23:36.363Z,20.52
2023-03-30T23:26:10.228Z,21.29
2023-03-30T23:28:39.930Z,20.87
2023-03-30T23:31:15.637Z,21.85
2023-03-30T23:33:43.556Z,21.18
2023-03-30T23:36:16.582Z,20.61
2023-03-30T23:38:43.651Z,19.62
2023-03-30T23:41:13.719Z,21.00
2023-03-30T23:43:40.938Z,20.70
2023-03-30T23:46:09.923Z,21.37
2023-03-30T23:48:37.477Z,21.15
2023-03-30T23:51:05.241Z,19.83
2023-03-30T23:53:32.639Z,20.73
2023-03-30T23:56:00.004Z,20.09
2023-03-30T23:58:27.491Z,20.27
